Stations météo

réclame
Mon MeteoGroup
Vinaroz, Espagne (8239): Température de l'air & dewpoint: 13.11.2017 18:00:00 - 19.11.2017 18:00:00 (CET)Vinaroz, Espagne (8239): Vitesse du vent & gusts: 13.11.2017 18:00:00 - 19.11.2017 18:00:00 (CET)Vinaroz, Espagne (8239): Direction du vent: 13.11.2017 18:00:00 - 19.11.2017 18:00:00 (CET)Vinaroz, Espagne (8239): Quantités de précipitations: 13.11.2017 18:00:00 - 19.11.2017 18:00:00 (CET)
Date & Time tt [°C] td [°C] ff [km/h] ff [knt] fx [km/h] fx [knt] dd rr [mm]
19.11.2017 18:00:00 12,4 6,4 4 2 8 4 SW 0,0
19.11.2017 17:00:00 16,8 5,8 5 3 13 7 S 0,0
19.11.2017 16:00:00 18,2 5,5 6 4 14 8 S 0,0
19.11.2017 15:00:00 17,6 4,1 8 5 18 10 S 0,0
19.11.2017 14:00:00 19,6 3,8 9 5 20 11 S 0,0
19.11.2017 13:00:00 19,5 1,5 3 1 10 5 NNE -
19.11.2017 12:00:00 17,3 0,9 4 2 14 7 E 0,0
19.11.2017 11:00:00 16,0 2,1 8 5 17 9 ENE 0,0
19.11.2017 10:00:00 12,7 1,7 9 5 21 11 NE 0,0
19.11.2017 09:00:00 8,8 2,9 7 4 12 6 N 0,0
19.11.2017 08:00:00 4,7 1,5 5 3 10 5 N 0,0
19.11.2017 07:00:00 5,8 2,1 8 4 10 6 N -
19.11.2017 06:00:00 6,0 2,7 6 4 10 6 NNE 0,0
19.11.2017 05:00:00 5,4 1,9 6 3 13 7 NNE 0,0
19.11.2017 04:00:00 6,2 2,5 7 4 14 7 N 0,0
19.11.2017 03:00:00 6,8 3,0 8 4 13 7 N 0,0
19.11.2017 02:00:00 6,0 2,1 6 4 13 7 NNE 0,0
19.11.2017 01:00:00 7,2 2,5 8 5 13 7 NNE -
19.11.2017 00:00:00 6,6 2,3 8 4 11 6 NNE 0,0
18.11.2017 23:00:00 6,7 2,1 6 3 11 6 N 0,0
18.11.2017 22:00:00 8,6 2,9 8 4 11 6 NNE 0,0
18.11.2017 21:00:00 8,6 3,4 6 4 10 6 NNE 0,0
18.11.2017 20:00:00 8,8 3,9 5 3 9 5 NNE 0,0
18.11.2017 19:00:00 9,9 4,1 0 0 0 0 N -
18.11.2017 18:00:00 12,8 2,9 0 0 7 4 S 0,0
18.11.2017 17:00:00 17,5 3,0 6 3 15 8 S 0,0
18.11.2017 16:00:00 18,4 2,7 8 4 19 10 S 0,0
18.11.2017 15:00:00 17,9 2,7 11 6 19 11 SSE 0,0
18.11.2017 14:00:00 19,8 2,1 9 5 15 8 S 0,0
18.11.2017 13:00:00 20,2 2,5 7 4 15 8 S -
18.11.2017 12:00:00 18,8 1,7 8 4 15 8 S 0,0
18.11.2017 11:00:00 17,7 2,5 4 2 14 8 SE 0,0
18.11.2017 10:00:00 14,8 2,3 6 4 12 7 NE 0,0
18.11.2017 09:00:00 10,2 1,9 8 4 11 6 NNE 0,0
18.11.2017 08:00:00 5,5 1,3 7 4 10 5 NE 0,0
18.11.2017 07:00:00 6,3 1,7 5 3 9 5 N -
18.11.2017 06:00:00 5,8 1,3 6 3 16 8 NE 0,0
18.11.2017 05:00:00 6,5 1,7 9 5 14 8 NNE 0,0
18.11.2017 04:00:00 5,9 2,1 8 4 11 6 NE 0,0
18.11.2017 03:00:00 7,5 3,4 9 5 14 8 NNE 0,0
18.11.2017 02:00:00 6,9 3,4 6 3 13 7 NNE 0,0
18.11.2017 01:00:00 6,5 3,4 7 4 12 6 NE -
18.11.2017 00:00:00 7,5 4,3 5 3 12 6 NNE 0,0
17.11.2017 23:00:00 8,4 4,8 6 3 10 5 N 0,0
17.11.2017 22:00:00 11,0 7,3 6 3 9 5 NNE 0,0
17.11.2017 21:00:00 9,2 5,8 5 3 12 6 NNE 0,0
17.11.2017 20:00:00 9,6 5,0 4 2 8 4 NNE 0,0
17.11.2017 19:00:00 11,7 5,8 5 3 7 4 NE -
17.11.2017 18:00:00 13,9 5,8 2 1 8 4 SSE 0,0
17.11.2017 17:00:00 17,4 5,3 6 3 12 6 SSW 0,0
17.11.2017 16:00:00 18,8 6,5 7 4 13 7 S 0,0
17.11.2017 15:00:00 18,4 6,8 8 5 16 9 S 0,0
17.11.2017 14:00:00 18,9 6,1 7 4 16 8 S 0,0
17.11.2017 13:00:00 18,7 4,8 3 2 14 7 SSE -
17.11.2017 12:00:00 19,4 4,6 3 2 11 6 S 0,0
17.11.2017 11:00:00 18,0 3,8 2 1 8 5 NNE 0,0
17.11.2017 10:00:00 13,0 1,7 6 3 11 6 NNE 0,0
17.11.2017 09:00:00 9,0 2,1 8 5 13 7 NNE 0,0
17.11.2017 08:00:00 5,5 1,7 9 5 12 7 NNE 0,0
17.11.2017 07:00:00 6,0 2,7 9 5 14 8 NNE -
17.11.2017 06:00:00 5,6 2,9 8 4 13 7 NNE 0,0
17.11.2017 05:00:00 5,9 3,2 9 5 13 7 N 0,0
17.11.2017 04:00:00 6,5 3,8 8 4 12 6 N 0,0
17.11.2017 03:00:00 7,0 4,3 8 5 14 7 N 0,0
17.11.2017 02:00:00 7,2 4,6 9 5 13 7 NNE 0,0
17.11.2017 01:00:00 6,9 4,1 9 5 12 7 NNE -
17.11.2017 00:00:00 7,4 4,1 7 4 12 7 NNE 0,0
16.11.2017 23:00:00 8,3 4,8 8 5 15 8 N 0,0
16.11.2017 22:00:00 7,9 4,8 4 2 9 5 NNE 0,0
16.11.2017 21:00:00 8,8 5,5 6 3 8 5 NNE 0,0
16.11.2017 20:00:00 9,0 5,8 5 3 8 4 NNE 0,0
16.11.2017 19:00:00 10,4 6,4 0 0 1 1 NE -
16.11.2017 18:00:00 12,9 7,0 0 0 10 5 N 0,0
16.11.2017 17:00:00 16,6 6,4 5 3 14 8 S 0,0
16.11.2017 16:00:00 17,7 5,6 8 5 18 10 S 0,0
16.11.2017 15:00:00 17,9 5,5 10 5 16 9 SSE 0,0
16.11.2017 14:00:00 18,5 5,9 7 4 19 11 S 0,0
16.11.2017 13:00:00 18,0 5,6 8 4 16 9 SSW -
16.11.2017 12:00:00 17,4 4,6 4 2 14 7 SE 0,0
16.11.2017 11:00:00 15,9 0,4 6 3 14 8 ENE 0,0
16.11.2017 10:00:00 12,8 -0,5 6 4 13 7 NNE 0,0
16.11.2017 09:00:00 9,1 0,2 9 5 16 9 N 0,0
16.11.2017 08:00:00 5,2 -0,3 11 6 16 9 N 0,0
16.11.2017 07:00:00 4,9 -0,3 10 5 14 8 N -
16.11.2017 06:00:00 5,2 -0,3 10 5 16 9 N 0,0
16.11.2017 05:00:00 5,3 0,4 9 5 14 8 NNE 0,0
16.11.2017 04:00:00 5,6 1,3 10 6 15 8 NNE 0,0
16.11.2017 03:00:00 5,4 1,5 8 4 11 6 N 0,0
16.11.2017 02:00:00 5,7 1,1 7 4 10 5 N 0,0
16.11.2017 01:00:00 6,2 1,3 6 3 12 6 N -
16.11.2017 00:00:00 6,5 2,5 6 4 14 7 N 0,0
15.11.2017 23:00:00 7,0 2,7 9 5 14 7 N 0,0
15.11.2017 22:00:00 7,3 3,2 6 3 10 5 N 0,0
15.11.2017 21:00:00 8,2 3,4 7 4 9 5 NNE 0,0
15.11.2017 20:00:00 8,4 3,9 7 4 9 5 NNE 0,0
15.11.2017 19:00:00 9,3 3,4 5 3 7 4 NNE -
15.11.2017 18:00:00 11,1 3,8 0 0 8 4 N 0,0
15.11.2017 17:00:00 13,5 3,2 6 3 13 7 SSW 0,0
15.11.2017 16:00:00 16,1 2,1 6 3 12 6 S 0,0
15.11.2017 15:00:00 16,8 1,7 6 3 17 9 S 0,0
15.11.2017 14:00:00 17,4 2,1 9 5 17 9 S 0,0
15.11.2017 13:00:00 17,3 -1,0 1 1 8 5 ENE -
15.11.2017 12:00:00 17,0 -0,3 1 1 14 7 NE 0,0
15.11.2017 11:00:00 13,6 -1,2 9 5 15 8 ENE 0,0
15.11.2017 10:00:00 11,7 -0,7 8 4 13 7 NE 0,0
15.11.2017 09:00:00 8,8 -1,0 5 3 12 7 NE 0,0
15.11.2017 08:00:00 3,3 -3,0 7 4 11 6 N 0,0
15.11.2017 07:00:00 3,8 -3,0 9 5 16 8 N -
15.11.2017 06:00:00 2,3 -4,2 6 3 13 7 NNE 0,0
15.11.2017 05:00:00 2,2 -3,9 7 4 11 6 NNE 0,0
15.11.2017 04:00:00 3,7 -3,6 7 4 12 6 NNE 0,0
15.11.2017 03:00:00 4,5 -3,0 8 4 14 7 NNE 0,0
15.11.2017 02:00:00 5,1 -3,3 7 4 11 6 NNE 0,0
15.11.2017 01:00:00 5,1 -3,0 7 4 13 7 NNE -
15.11.2017 00:00:00 4,8 -2,7 6 4 14 7 NNE 0,0
14.11.2017 23:00:00 6,7 -2,2 7 4 13 7 N 0,0
14.11.2017 22:00:00 7,1 -1,4 6 4 12 7 NW 0,0
14.11.2017 21:00:00 7,0 1,1 4 2 11 6 NNW 0,0
14.11.2017 20:00:00 8,2 1,9 5 3 9 5 NW 0,0
14.11.2017 19:00:00 9,2 1,9 5 3 8 5 N -
14.11.2017 18:00:00 10,9 0,6 3 2 13 7 SW 0,0
14.11.2017 17:00:00 14,5 0,0 9 5 21 11 SSE 0,0
14.11.2017 16:00:00 16,2 0,2 11 6 20 11 SE 0,0
14.11.2017 15:00:00 17,4 0,0 8 5 17 9 SSE 0,0
14.11.2017 14:00:00 18,0 0,6 6 4 20 11 ESE 0,0
14.11.2017 13:00:00 17,3 0,0 11 6 19 11 ESE -
14.11.2017 12:00:00 16,5 -2,2 5 3 27 15 NNW 0,0
14.11.2017 11:00:00 15,5 -2,0 16 8 31 17 W 0,0
14.11.2017 10:00:00 13,5 -2,0 14 8 27 15 WNW 0,0
14.11.2017 09:00:00 11,3 -3,0 16 9 28 15 WNW 0,0
14.11.2017 08:00:00 9,1 -4,2 13 7 29 16 WNW 0,0
14.11.2017 07:00:00 9,2 -4,2 15 8 33 18 WNW -
14.11.2017 06:00:00 9,1 -4,2 15 8 34 19 WNW 0,0
14.11.2017 05:00:00 9,3 -3,9 21 11 43 23 NW 0,0
14.11.2017 04:00:00 9,5 -3,9 24 13 50 27 NW 0,0
14.11.2017 03:00:00 9,6 -3,6 27 14 49 27 NW 0,0
14.11.2017 02:00:00 9,4 -3,9 19 11 41 22 WNW 0,0
14.11.2017 01:00:00 9,5 -3,9 17 9 31 17 WNW -
14.11.2017 00:00:00 9,6 -3,6 18 10 49 27 NW 0,0
13.11.2017 23:00:00 9,9 -3,9 26 14 49 26 WNW 0,0
13.11.2017 22:00:00 9,9 -4,5 27 14 49 26 NW 0,0
13.11.2017 21:00:00 10,1 -4,5 22 12 49 26 WNW 0,0
13.11.2017 20:00:00 10,9 -4,5 27 14 50 27 WNW 0,0
13.11.2017 19:00:00 11,5 -4,2 24 13 41 22 NW -
13.11.2017 18:00:00 12,3 -4,5 19 11 42 23 WNW 0,0

tt = Température de l'air
td = dewpoint
ff = Vitesse du vent
fx = gusts
dd = Direction du vent
rr = Quantités de précipitations

stations d'obs. à proximité